Terminal Aerodrome Forecast
Issued by NWS

Home | Current Version | Previous Version | Text Only | Print | Product List | Glossary On
Versions: 1 2 3 4 5 6 7 8 9 10 11 12 13 14 15 16 17
000
FTUS45 KSLC 250053 AAA
TAF36U
TAF AMD
K36U 250053Z 2501/2524 04008KT P6SM VCSH SCT080 SCT120
     FM250300 32008KT P6SM SCT060 BKN080
     FM250600 VRB04KT P6SM SCT120
     FM251900 25011KT P6SM SCT120=

USA.gov is the U.S. government's official web portal to all federal, state and local government web resources and services.